sensor_id;sensor_type;location;lat;lon;timestamp;P1;durP1;ratioP1;P2;durP2;ratioP2
62903;SDS011;49000;50.698;13.322;2023-07-16T00:01:51;6.38;;;3.42;;
62903;SDS011;49000;50.698;13.322;2023-07-16T00:04:17;4.15;;;3.60;;
62903;SDS011;49000;50.698;13.322;2023-07-16T00:06:42;3.70;;;3.20;;
62903;SDS011;49000;50.698;13.322;2023-07-16T00:09:08;6.03;;;3.47;;
62903;SDS011;49000;50.698;13.322;2023-07-16T00:11:33;6.25;;;3.30;;
62903;SDS011;49000;50.698;13.322;2023-07-16T00:13:59;5.00;;;3.03;;
62903;SDS011;49000;50.698;13.322;2023-07-16T00:16:26;6.35;;;3.13;;
62903;SDS011;49000;50.698;13.322;2023-07-16T00:18:52;4.30;;;3.42;;
62903;SDS011;49000;50.698;13.322;2023-07-16T00:21:17;4.95;;;3.83;;
62903;SDS011;49000;50.698;13.322;2023-07-16T00:23:43;4.68;;;3.72;;
62903;SDS011;49000;50.698;13.322;2023-07-16T00:26:08;5.43;;;3.72;;
62903;SDS011;49000;50.698;13.322;2023-07-16T00:28:34;5.03;;;3.28;;
62903;SDS011;49000;50.698;13.322;2023-07-16T00:31:00;5.70;;;3.20;;
62903;SDS011;49000;50.698;13.322;2023-07-16T00:33:26;6.25;;;3.15;;
62903;SDS011;49000;50.698;13.322;2023-07-16T00:35:51;3.67;;;2.95;;
62903;SDS011;49000;50.698;13.322;2023-07-16T00:38:17;3.80;;;2.80;;
62903;SDS011;49000;50.698;13.322;2023-07-16T00:40:43;4.13;;;2.85;;
62903;SDS011;49000;50.698;13.322;2023-07-16T00:43:09;3.80;;;2.80;;
62903;SDS011;49000;50.698;13.322;2023-07-16T00:45:35;3.80;;;2.92;;
62903;SDS011;49000;50.698;13.322;2023-07-16T00:48:01;3.25;;;2.58;;
62903;SDS011;49000;50.698;13.322;2023-07-16T00:50:29;2.95;;;2.30;;
62903;SDS011;49000;50.698;13.322;2023-07-16T00:52:58;3.28;;;2.20;;
62903;SDS011;49000;50.698;13.322;2023-07-16T00:55:28;5.07;;;2.50;;
62903;SDS011;49000;50.698;13.322;2023-07-16T00:57:55;4.47;;;2.30;;
62903;SDS011;49000;50.698;13.322;2023-07-16T01:00:27;3.85;;;2.20;;
62903;SDS011;49000;50.698;13.322;2023-07-16T01:02:53;2.97;;;2.35;;
62903;SDS011;49000;50.698;13.322;2023-07-16T01:05:19;3.97;;;1.95;;
62903;SDS011;49000;50.698;13.322;2023-07-16T01:07:55;3.38;;;1.70;;
62903;SDS011;49000;50.698;13.322;2023-07-16T01:10:25;4.65;;;1.90;;
62903;SDS011;49000;50.698;13.322;2023-07-16T01:12:53;2.90;;;1.98;;
62903;SDS011;49000;50.698;13.322;2023-07-16T01:15:21;2.22;;;2.03;;
62903;SDS011;49000;50.698;13.322;2023-07-16T01:17:46;4.03;;;2.05;;
62903;SDS011;49000;50.698;13.322;2023-07-16T01:20:12;3.45;;;2.33;;
62903;SDS011;49000;50.698;13.322;2023-07-16T01:25:48;3.28;;;2.50;;
62903;SDS011;49000;50.698;13.322;2023-07-16T01:31:23;2.58;;;1.90;;
62903;SDS011;49000;50.698;13.322;2023-07-16T01:33:50;2.42;;;1.75;;
62903;SDS011;49000;50.698;13.322;2023-07-16T01:36:17;2.83;;;2.08;;
62903;SDS011;49000;50.698;13.322;2023-07-16T01:38:43;2.88;;;2.20;;
62903;SDS011;49000;50.698;13.322;2023-07-16T01:41:10;3.00;;;1.75;;
62903;SDS011;49000;50.698;13.322;2023-07-16T01:43:36;2.60;;;1.90;;
62903;SDS011;49000;50.698;13.322;2023-07-16T01:46:01;3.35;;;1.80;;
62903;SDS011;49000;50.698;13.322;2023-07-16T01:48:30;2.65;;;1.75;;
62903;SDS011;49000;50.698;13.322;2023-07-16T01:51:00;2.50;;;1.85;;
62903;SDS011;49000;50.698;13.322;2023-07-16T01:53:26;2.30;;;1.70;;
62903;SDS011;49000;50.698;13.322;2023-07-16T01:55:52;2.75;;;1.83;;
62903;SDS011;49000;50.698;13.322;2023-07-16T01:58:17;2.85;;;1.83;;
62903;SDS011;49000;50.698;13.322;2023-07-16T02:00:43;2.55;;;1.60;;
62903;SDS011;49000;50.698;13.322;2023-07-16T02:03:08;2.75;;;1.70;;
62903;SDS011;49000;50.698;13.322;2023-07-16T02:05:34;1.95;;;1.60;;
62903;SDS011;49000;50.698;13.322;2023-07-16T02:07:59;3.00;;;1.50;;
62903;SDS011;49000;50.698;13.322;2023-07-16T02:10:25;2.20;;;1.55;;
62903;SDS011;49000;50.698;13.322;2023-07-16T02:12:51;1.58;;;1.42;;
62903;SDS011;49000;50.698;13.322;2023-07-16T02:15:16;2.83;;;1.90;;
62903;SDS011;49000;50.698;13.322;2023-07-16T02:17:42;2.28;;;1.52;;
62903;SDS011;49000;50.698;13.322;2023-07-16T02:20:08;4.00;;;1.85;;
62903;SDS011;49000;50.698;13.322;2023-07-16T02:22:35;3.50;;;1.98;;
62903;SDS011;49000;50.698;13.322;2023-07-16T02:25:02;2.65;;;2.25;;
62903;SDS011;49000;50.698;13.322;2023-07-16T02:27:28;5.35;;;2.10;;
62903;SDS011;49000;50.698;13.322;2023-07-16T02:29:54;2.67;;;2.28;;
62903;SDS011;49000;50.698;13.322;2023-07-16T02:32:19;3.15;;;1.90;;
62903;SDS011;49000;50.698;13.322;2023-07-16T02:34:45;5.68;;;2.00;;
62903;SDS011;49000;50.698;13.322;2023-07-16T02:37:10;2.15;;;1.90;;
62903;SDS011;49000;50.698;13.322;2023-07-16T02:39:37;3.30;;;2.17;;
62903;SDS011;49000;50.698;13.322;2023-07-16T02:42:04;3.05;;;2.20;;
62903;SDS011;49000;50.698;13.322;2023-07-16T02:44:29;1.95;;;1.70;;
62903;SDS011;49000;50.698;13.322;2023-07-16T02:46:55;3.22;;;2.00;;
62903;SDS011;49000;50.698;13.322;2023-07-16T02:49:20;2.55;;;1.65;;
62903;SDS011;49000;50.698;13.322;2023-07-16T02:51:46;3.85;;;1.92;;
62903;SDS011;49000;50.698;13.322;2023-07-16T02:54:11;2.35;;;1.55;;
62903;SDS011;49000;50.698;13.322;2023-07-16T02:56:37;2.97;;;1.65;;
62903;SDS011;49000;50.698;13.322;2023-07-16T02:59:02;2.22;;;1.65;;
62903;SDS011;49000;50.698;13.322;2023-07-16T03:01:28;5.20;;;2.08;;
62903;SDS011;49000;50.698;13.322;2023-07-16T03:03:54;3.38;;;1.77;;
62903;SDS011;49000;50.698;13.322;2023-07-16T03:06:19;1.98;;;1.30;;
62903;SDS011;49000;50.698;13.322;2023-07-16T03:08:45;1.50;;;1.40;;
62903;SDS011;49000;50.698;13.322;2023-07-16T03:11:11;4.32;;;1.70;;
62903;SDS011;49000;50.698;13.322;2023-07-16T03:13:37;3.65;;;1.60;;
62903;SDS011;49000;50.698;13.322;2023-07-16T03:16:02;3.60;;;2.00;;
62903;SDS011;49000;50.698;13.322;2023-07-16T03:18:28;3.38;;;1.70;;
62903;SDS011;49000;50.698;13.322;2023-07-16T03:20:54;3.33;;;2.00;;
62903;SDS011;49000;50.698;13.322;2023-07-16T03:23:20;2.05;;;1.42;;
62903;SDS011;49000;50.698;13.322;2023-07-16T03:25:46;2.85;;;1.67;;
62903;SDS011;49000;50.698;13.322;2023-07-16T03:28:11;2.33;;;1.85;;
62903;SDS011;49000;50.698;13.322;2023-07-16T03:30:37;2.50;;;1.80;;
62903;SDS011;49000;50.698;13.322;2023-07-16T03:33:04;2.85;;;1.80;;
62903;SDS011;49000;50.698;13.322;2023-07-16T03:35:29;1.90;;;1.63;;
62903;SDS011;49000;50.698;13.322;2023-07-16T03:37:55;3.63;;;1.67;;
62903;SDS011;49000;50.698;13.322;2023-07-16T03:40:24;2.40;;;1.90;;
62903;SDS011;49000;50.698;13.322;2023-07-16T03:42:51;3.40;;;2.00;;
62903;SDS011;49000;50.698;13.322;2023-07-16T03:45:16;3.13;;;2.15;;
62903;SDS011;49000;50.698;13.322;2023-07-16T03:47:42;3.55;;;2.28;;
62903;SDS011;49000;50.698;13.322;2023-07-16T03:50:08;2.35;;;2.03;;
62903;SDS011;49000;50.698;13.322;2023-07-16T03:52:33;2.10;;;1.90;;
62903;SDS011;49000;50.698;13.322;2023-07-16T03:54:59;3.08;;;2.03;;
62903;SDS011;49000;50.698;13.322;2023-07-16T03:57:25;2.67;;;1.85;;
62903;SDS011;49000;50.698;13.322;2023-07-16T03:59:52;2.88;;;2.00;;
62903;SDS011;49000;50.698;13.322;2023-07-16T04:02:18;2.35;;;1.73;;
62903;SDS011;49000;50.698;13.322;2023-07-16T04:04:43;1.77;;;1.65;;
62903;SDS011;49000;50.698;13.322;2023-07-16T04:07:09;2.45;;;1.98;;
62903;SDS011;49000;50.698;13.322;2023-07-16T04:09:36;2.28;;;1.80;;
62903;SDS011;49000;50.698;13.322;2023-07-16T04:12:03;5.10;;;2.03;;
62903;SDS011;49000;50.698;13.322;2023-07-16T04:14:29;3.20;;;1.88;;
62903;SDS011;49000;50.698;13.322;2023-07-16T04:16:55;2.67;;;1.80;;
62903;SDS011;49000;50.698;13.322;2023-07-16T04:19:20;2.10;;;1.65;;
62903;SDS011;49000;50.698;13.322;2023-07-16T04:21:46;2.33;;;1.92;;
62903;SDS011;49000;50.698;13.322;2023-07-16T04:24:11;5.10;;;2.20;;
62903;SDS011;49000;50.698;13.322;2023-07-16T04:26:37;2.13;;;1.65;;
62903;SDS011;49000;50.698;13.322;2023-07-16T04:29:02;2.83;;;1.65;;
62903;SDS011;49000;50.698;13.322;2023-07-16T04:31:28;2.10;;;1.90;;
62903;SDS011;49000;50.698;13.322;2023-07-16T04:33:53;1.88;;;1.73;;
62903;SDS011;49000;50.698;13.322;2023-07-16T04:36:19;2.33;;;1.60;;
62903;SDS011;49000;50.698;13.322;2023-07-16T04:38:44;2.22;;;1.40;;
62903;SDS011;49000;50.698;13.322;2023-07-16T04:41:10;2.17;;;1.80;;
62903;SDS011;49000;50.698;13.322;2023-07-16T04:43:37;1.95;;;1.60;;
62903;SDS011;49000;50.698;13.322;2023-07-16T04:46:03;2.15;;;1.70;;
62903;SDS011;49000;50.698;13.322;2023-07-16T04:48:29;2.28;;;1.80;;
62903;SDS011;49000;50.698;13.322;2023-07-16T04:50:54;1.48;;;1.38;;
62903;SDS011;49000;50.698;13.322;2023-07-16T04:53:20;2.22;;;1.60;;
62903;SDS011;49000;50.698;13.322;2023-07-16T04:55:49;4.47;;;1.40;;
62903;SDS011;49000;50.698;13.322;2023-07-16T04:58:14;2.42;;;1.67;;
62903;SDS011;49000;50.698;13.322;2023-07-16T05:00:40;1.65;;;1.50;;
62903;SDS011;49000;50.698;13.322;2023-07-16T05:03:06;1.92;;;1.65;;
62903;SDS011;49000;50.698;13.322;2023-07-16T05:05:32;1.65;;;1.55;;
62903;SDS011;49000;50.698;13.322;2023-07-16T05:07:58;2.00;;;1.60;;
62903;SDS011;49000;50.698;13.322;2023-07-16T05:10:23;2.00;;;1.80;;
62903;SDS011;49000;50.698;13.322;2023-07-16T05:12:49;2.88;;;1.55;;
62903;SDS011;49000;50.698;13.322;2023-07-16T05:15:15;2.35;;;1.90;;
62903;SDS011;49000;50.698;13.322;2023-07-16T05:17:40;2.97;;;1.50;;
62903;SDS011;49000;50.698;13.322;2023-07-16T05:20:06;2.05;;;1.40;;
62903;SDS011;49000;50.698;13.322;2023-07-16T05:22:32;2.35;;;1.58;;
62903;SDS011;49000;50.698;13.322;2023-07-16T05:24:58;3.17;;;1.60;;
62903;SDS011;49000;50.698;13.322;2023-07-16T05:27:24;2.08;;;1.55;;
62903;SDS011;49000;50.698;13.322;2023-07-16T05:29:49;1.98;;;1.40;;
62903;SDS011;49000;50.698;13.322;2023-07-16T05:32:15;2.13;;;1.55;;
62903;SDS011;49000;50.698;13.322;2023-07-16T05:34:40;1.40;;;1.30;;
62903;SDS011;49000;50.698;13.322;2023-07-16T05:37:06;1.70;;;1.60;;
62903;SDS011;49000;50.698;13.322;2023-07-16T05:39:32;1.65;;;1.55;;
62903;SDS011;49000;50.698;13.322;2023-07-16T05:41:57;2.90;;;1.67;;
62903;SDS011;49000;50.698;13.322;2023-07-16T05:44:23;1.42;;;1.33;;
62903;SDS011;49000;50.698;13.322;2023-07-16T05:46:48;2.08;;;1.50;;
62903;SDS011;49000;50.698;13.322;2023-07-16T05:49:14;3.35;;;1.90;;
62903;SDS011;49000;50.698;13.322;2023-07-16T05:51:39;1.90;;;1.60;;
62903;SDS011;49000;50.698;13.322;2023-07-16T05:54:05;3.25;;;1.83;;
62903;SDS011;49000;50.698;13.322;2023-07-16T05:56:31;2.45;;;1.80;;
62903;SDS011;49000;50.698;13.322;2023-07-16T05:58:57;1.80;;;1.70;;
62903;SDS011;49000;50.698;13.322;2023-07-16T06:01:22;2.88;;;1.85;;
62903;SDS011;49000;50.698;13.322;2023-07-16T06:03:48;3.90;;;2.10;;
62903;SDS011;49000;50.698;13.322;2023-07-16T06:06:13;3.30;;;1.90;;
62903;SDS011;49000;50.698;13.322;2023-07-16T06:08:42;1.77;;;1.23;;
62903;SDS011;49000;50.698;13.322;2023-07-16T06:11:07;1.50;;;1.40;;
62903;SDS011;49000;50.698;13.322;2023-07-16T06:13:33;1.77;;;1.50;;
62903;SDS011;49000;50.698;13.322;2023-07-16T06:15:58;2.03;;;1.10;;
62903;SDS011;49000;50.698;13.322;2023-07-16T06:18:24;1.30;;;1.20;;
62903;SDS011;49000;50.698;13.322;2023-07-16T06:20:49;1.63;;;1.50;;
62903;SDS011;49000;50.698;13.322;2023-07-16T06:23:16;1.75;;;1.20;;
62903;SDS011;49000;50.698;13.322;2023-07-16T06:25:42;1.50;;;1.40;;
62903;SDS011;49000;50.698;13.322;2023-07-16T06:28:13;1.33;;;1.10;;
62903;SDS011;49000;50.698;13.322;2023-07-16T06:30:39;2.47;;;1.20;;
62903;SDS011;49000;50.698;13.322;2023-07-16T06:33:04;2.05;;;1.10;;
62903;SDS011;49000;50.698;13.322;2023-07-16T06:35:30;2.67;;;1.50;;
62903;SDS011;49000;50.698;13.322;2023-07-16T06:37:56;2.17;;;1.30;;
62903;SDS011;49000;50.698;13.322;2023-07-16T06:40:21;1.27;;;1.02;;
62903;SDS011;49000;50.698;13.322;2023-07-16T06:42:47;1.20;;;1.10;;
62903;SDS011;49000;50.698;13.322;2023-07-16T06:45:14;1.27;;;1.15;;
62903;SDS011;49000;50.698;13.322;2023-07-16T06:47:40;1.20;;;1.10;;
62903;SDS011;49000;50.698;13.322;2023-07-16T06:50:05;2.67;;;1.20;;
62903;SDS011;49000;50.698;13.322;2023-07-16T06:52:31;2.88;;;1.20;;
62903;SDS011;49000;50.698;13.322;2023-07-16T06:54:57;1.30;;;1.20;;
62903;SDS011;49000;50.698;13.322;2023-07-16T06:57:25;1.65;;;1.00;;
62903;SDS011;49000;50.698;13.322;2023-07-16T06:59:50;2.35;;;1.35;;
62903;SDS011;49000;50.698;13.322;2023-07-16T07:02:16;1.58;;;1.33;;
62903;SDS011;49000;50.698;13.322;2023-07-16T07:04:42;1.40;;;1.30;;
62903;SDS011;49000;50.698;13.322;2023-07-16T07:07:08;2.80;;;1.80;;
62903;SDS011;49000;50.698;13.322;2023-07-16T07:09:34;1.27;;;1.17;;
62903;SDS011;49000;50.698;13.322;2023-07-16T07:11:59;1.55;;;1.33;;
62903;SDS011;49000;50.698;13.322;2023-07-16T07:14:25;1.40;;;1.30;;
62903;SDS011;49000;50.698;13.322;2023-07-16T07:16:51;2.15;;;1.60;;
62903;SDS011;49000;50.698;13.322;2023-07-16T07:19:16;1.80;;;1.50;;
62903;SDS011;49000;50.698;13.322;2023-07-16T07:21:42;1.50;;;1.38;;
62903;SDS011;49000;50.698;13.322;2023-07-16T07:24:07;2.97;;;1.40;;
62903;SDS011;49000;50.698;13.322;2023-07-16T07:26:33;3.03;;;1.77;;
62903;SDS011;49000;50.698;13.322;2023-07-16T07:28:58;3.22;;;1.70;;
62903;SDS011;49000;50.698;13.322;2023-07-16T07:31:24;2.88;;;1.70;;
62903;SDS011;49000;50.698;13.322;2023-07-16T07:33:49;2.50;;;1.73;;
62903;SDS011;49000;50.698;13.322;2023-07-16T07:36:14;2.10;;;1.90;;
62903;SDS011;49000;50.698;13.322;2023-07-16T07:38:40;1.70;;;1.60;;
62903;SDS011;49000;50.698;13.322;2023-07-16T07:41:06;2.20;;;1.70;;
62903;SDS011;49000;50.698;13.322;2023-07-16T07:43:31;2.10;;;1.67;;
62903;SDS011;49000;50.698;13.322;2023-07-16T07:45:57;2.17;;;1.80;;
62903;SDS011;49000;50.698;13.322;2023-07-16T07:48:22;2.10;;;1.80;;
62903;SDS011;49000;50.698;13.322;2023-07-16T07:50:48;1.85;;;1.73;;
62903;SDS011;49000;50.698;13.322;2023-07-16T07:53:14;2.45;;;2.00;;
62903;SDS011;49000;50.698;13.322;2023-07-16T07:55:45;2.55;;;1.90;;
62903;SDS011;49000;50.698;13.322;2023-07-16T07:58:11;2.22;;;1.65;;
62903;SDS011;49000;50.698;13.322;2023-07-16T08:00:37;2.35;;;1.60;;
62903;SDS011;49000;50.698;13.322;2023-07-16T08:03:03;3.03;;;2.00;;
62903;SDS011;49000;50.698;13.322;2023-07-16T08:05:28;2.72;;;1.50;;
62903;SDS011;49000;50.698;13.322;2023-07-16T08:07:54;2.63;;;1.70;;
62903;SDS011;49000;50.698;13.322;2023-07-16T08:10:20;2.22;;;2.03;;
62903;SDS011;49000;50.698;13.322;2023-07-16T08:12:46;1.73;;;1.60;;
62903;SDS011;49000;50.698;13.322;2023-07-16T08:15:11;3.00;;;1.85;;
62903;SDS011;49000;50.698;13.322;2023-07-16T08:17:41;2.47;;;1.75;;
62903;SDS011;49000;50.698;13.322;2023-07-16T08:20:07;2.55;;;1.77;;
62903;SDS011;49000;50.698;13.322;2023-07-16T08:22:33;2.55;;;1.58;;
62903;SDS011;49000;50.698;13.322;2023-07-16T08:24:58;2.25;;;1.80;;
62903;SDS011;49000;50.698;13.322;2023-07-16T08:27:24;2.72;;;1.80;;
62903;SDS011;49000;50.698;13.322;2023-07-16T08:29:49;4.22;;;1.90;;
62903;SDS011;49000;50.698;13.322;2023-07-16T08:32:15;2.88;;;1.70;;
62903;SDS011;49000;50.698;13.322;2023-07-16T08:34:40;2.65;;;2.03;;
62903;SDS011;49000;50.698;13.322;2023-07-16T08:37:06;2.13;;;1.80;;
62903;SDS011;49000;50.698;13.322;2023-07-16T08:39:31;3.13;;;1.80;;
62903;SDS011;49000;50.698;13.322;2023-07-16T08:41:57;2.53;;;1.70;;
62903;SDS011;49000;50.698;13.322;2023-07-16T08:44:23;2.95;;;2.00;;
62903;SDS011;49000;50.698;13.322;2023-07-16T08:46:49;2.60;;;1.95;;
62903;SDS011;49000;50.698;13.322;2023-07-16T08:49:17;2.00;;;1.80;;
62903;SDS011;49000;50.698;13.322;2023-07-16T08:51:43;2.72;;;2.00;;
62903;SDS011;49000;50.698;13.322;2023-07-16T08:54:12;3.75;;;1.98;;
62903;SDS011;49000;50.698;13.322;2023-07-16T08:56:40;3.17;;;2.05;;
62903;SDS011;49000;50.698;13.322;2023-07-16T08:59:07;2.75;;;2.15;;
62903;SDS011;49000;50.698;13.322;2023-07-16T09:01:33;2.22;;;1.90;;
62903;SDS011;49000;50.698;13.322;2023-07-16T09:03:58;2.65;;;2.10;;
62903;SDS011;49000;50.698;13.322;2023-07-16T09:06:24;3.08;;;1.90;;
62903;SDS011;49000;50.698;13.322;2023-07-16T09:08:50;2.45;;;2.20;;
62903;SDS011;49000;50.698;13.322;2023-07-16T09:11:15;2.35;;;2.10;;
62903;SDS011;49000;50.698;13.322;2023-07-16T09:13:46;3.38;;;2.20;;
62903;SDS011;49000;50.698;13.322;2023-07-16T09:16:11;3.53;;;2.30;;
62903;SDS011;49000;50.698;13.322;2023-07-16T09:18:39;2.60;;;1.90;;
62903;SDS011;49000;50.698;13.322;2023-07-16T09:21:05;2.00;;;1.80;;
62903;SDS011;49000;50.698;13.322;2023-07-16T09:23:32;4.15;;;2.08;;
62903;SDS011;49000;50.698;13.322;2023-07-16T09:25:57;5.22;;;2.20;;
62903;SDS011;49000;50.698;13.322;2023-07-16T09:28:23;3.42;;;1.92;;
62903;SDS011;49000;50.698;13.322;2023-07-16T09:30:49;3.30;;;2.05;;
62903;SDS011;49000;50.698;13.322;2023-07-16T09:33:16;5.05;;;1.95;;
62903;SDS011;49000;50.698;13.322;2023-07-16T09:35:43;4.25;;;2.22;;
62903;SDS011;49000;50.698;13.322;2023-07-16T09:38:09;2.45;;;1.98;;
62903;SDS011;49000;50.698;13.322;2023-07-16T09:40:36;2.75;;;1.73;;
62903;SDS011;49000;50.698;13.322;2023-07-16T09:43:03;4.97;;;2.10;;
62903;SDS011;49000;50.698;13.322;2023-07-16T09:45:29;2.92;;;2.00;;
62903;SDS011;49000;50.698;13.322;2023-07-16T09:47:55;4.45;;;2.10;;
62903;SDS011;49000;50.698;13.322;2023-07-16T09:50:22;3.63;;;2.10;;
62903;SDS011;49000;50.698;13.322;2023-07-16T09:52:50;2.20;;;1.92;;
62903;SDS011;49000;50.698;13.322;2023-07-16T09:55:16;7.07;;;1.92;;
62903;SDS011;49000;50.698;13.322;2023-07-16T09:57:43;2.47;;;1.92;;
62903;SDS011;49000;50.698;13.322;2023-07-16T10:00:09;4.22;;;1.95;;
62903;SDS011;49000;50.698;13.322;2023-07-16T10:02:37;2.13;;;1.92;;
62903;SDS011;49000;50.698;13.322;2023-07-16T10:05:19;3.20;;;2.00;;
62903;SDS011;49000;50.698;13.322;2023-07-16T10:07:53;3.92;;;2.03;;
62903;SDS011;49000;50.698;13.322;2023-07-16T10:10:20;2.80;;;1.80;;
62903;SDS011;49000;50.698;13.322;2023-07-16T10:12:55;3.88;;;1.77;;
62903;SDS011;49000;50.698;13.322;2023-07-16T10:15:26;4.15;;;1.90;;
62903;SDS011;49000;50.698;13.322;2023-07-16T10:17:53;4.05;;;1.70;;
62903;SDS011;49000;50.698;13.322;2023-07-16T10:20:35;2.22;;;1.88;;
62903;SDS011;49000;50.698;13.322;2023-07-16T10:23:11;3.55;;;2.08;;
62903;SDS011;49000;50.698;13.322;2023-07-16T10:25:37;3.30;;;1.80;;
62903;SDS011;49000;50.698;13.322;2023-07-16T10:28:03;2.88;;;1.80;;
62903;SDS011;49000;50.698;13.322;2023-07-16T10:30:29;2.78;;;1.92;;
62903;SDS011;49000;50.698;13.322;2023-07-16T10:32:55;2.88;;;2.20;;
62903;SDS011;49000;50.698;13.322;2023-07-16T10:35:21;2.58;;;1.95;;
62903;SDS011;49000;50.698;13.322;2023-07-16T10:37:46;3.00;;;1.83;;
62903;SDS011;49000;50.698;13.322;2023-07-16T10:40:12;2.83;;;1.55;;
62903;SDS011;49000;50.698;13.322;2023-07-16T10:42:40;3.25;;;1.83;;
62903;SDS011;49000;50.698;13.322;2023-07-16T10:45:08;2.47;;;1.90;;
62903;SDS011;49000;50.698;13.322;2023-07-16T10:47:34;2.67;;;1.65;;
62903;SDS011;49000;50.698;13.322;2023-07-16T10:50:09;2.70;;;1.90;;
62903;SDS011;49000;50.698;13.322;2023-07-16T10:52:35;3.30;;;2.03;;
62903;SDS011;49000;50.698;13.322;2023-07-16T10:55:01;4.50;;;1.85;;
62903;SDS011;49000;50.698;13.322;2023-07-16T10:57:27;3.97;;;2.30;;
62903;SDS011;49000;50.698;13.322;2023-07-16T10:59:53;4.05;;;1.92;;
62903;SDS011;49000;50.698;13.322;2023-07-16T11:02:21;2.92;;;1.67;;
62903;SDS011;49000;50.698;13.322;2023-07-16T11:04:48;3.42;;;2.13;;
62903;SDS011;49000;50.698;13.322;2023-07-16T11:07:14;2.85;;;1.70;;
62903;SDS011;49000;50.698;13.322;2023-07-16T11:09:44;2.55;;;1.77;;
62903;SDS011;49000;50.698;13.322;2023-07-16T11:12:15;2.05;;;1.77;;
62903;SDS011;49000;50.698;13.322;2023-07-16T11:14:43;4.32;;;2.20;;
62903;SDS011;49000;50.698;13.322;2023-07-16T11:17:10;3.08;;;1.90;;
62903;SDS011;49000;50.698;13.322;2023-07-16T11:19:36;3.55;;;2.08;;
62903;SDS011;49000;50.698;13.322;2023-07-16T11:22:03;4.50;;;2.00;;
62903;SDS011;49000;50.698;13.322;2023-07-16T11:24:40;5.47;;;2.10;;
62903;SDS011;49000;50.698;13.322;2023-07-16T11:27:06;3.08;;;1.92;;
62903;SDS011;49000;50.698;13.322;2023-07-16T11:32:14;2.20;;;2.00;;
62903;SDS011;49000;50.698;13.322;2023-07-16T11:34:53;3.45;;;2.08;;
62903;SDS011;49000;50.698;13.322;2023-07-16T11:37:19;3.25;;;2.30;;
62903;SDS011;49000;50.698;13.322;2023-07-16T11:39:46;2.65;;;1.90;;
62903;SDS011;49000;50.698;13.322;2023-07-16T11:42:12;5.05;;;1.88;;
62903;SDS011;49000;50.698;13.322;2023-07-16T11:44:37;3.53;;;1.98;;
62903;SDS011;49000;50.698;13.322;2023-07-16T11:47:03;2.67;;;2.13;;
62903;SDS011;49000;50.698;13.322;2023-07-16T11:49:29;3.15;;;1.83;;
62903;SDS011;49000;50.698;13.322;2023-07-16T11:51:56;2.58;;;1.85;;
62903;SDS011;49000;50.698;13.322;2023-07-16T11:54:21;2.90;;;2.00;;
62903;SDS011;49000;50.698;13.322;2023-07-16T11:56:47;2.78;;;2.05;;
62903;SDS011;49000;50.698;13.322;2023-07-16T11:59:13;2.33;;;2.00;;
62903;SDS011;49000;50.698;13.322;2023-07-16T12:01:39;2.33;;;1.90;;
62903;SDS011;49000;50.698;13.322;2023-07-16T12:04:05;3.78;;;2.15;;
62903;SDS011;49000;50.698;13.322;2023-07-16T12:06:30;2.35;;;1.80;;
62903;SDS011;49000;50.698;13.322;2023-07-16T12:08:56;2.40;;;1.73;;
62903;SDS011;49000;50.698;13.322;2023-07-16T12:11:21;2.13;;;1.92;;
62903;SDS011;49000;50.698;13.322;2023-07-16T12:13:47;3.25;;;1.85;;
62903;SDS011;49000;50.698;13.322;2023-07-16T12:16:13;3.90;;;1.95;;
62903;SDS011;49000;50.698;13.322;2023-07-16T12:18:38;2.20;;;1.75;;
62903;SDS011;49000;50.698;13.322;2023-07-16T12:21:04;3.63;;;1.90;;
62903;SDS011;49000;50.698;13.322;2023-07-16T12:23:31;2.70;;;1.75;;
62903;SDS011;49000;50.698;13.322;2023-07-16T12:25:56;3.22;;;1.80;;
62903;SDS011;49000;50.698;13.322;2023-07-16T12:28:22;3.03;;;1.95;;
62903;SDS011;49000;50.698;13.322;2023-07-16T12:30:47;3.55;;;2.25;;
62903;SDS011;49000;50.698;13.322;2023-07-16T12:33:13;2.53;;;1.83;;
62903;SDS011;49000;50.698;13.322;2023-07-16T12:35:38;2.08;;;1.77;;
62903;SDS011;49000;50.698;13.322;2023-07-16T12:38:04;2.40;;;1.85;;
62903;SDS011;49000;50.698;13.322;2023-07-16T12:40:30;2.75;;;1.98;;
62903;SDS011;49000;50.698;13.322;2023-07-16T12:42:56;4.40;;;2.22;;
62903;SDS011;49000;50.698;13.322;2023-07-16T12:45:21;3.15;;;1.92;;
62903;SDS011;49000;50.698;13.322;2023-07-16T12:47:47;2.90;;;2.10;;
62903;SDS011;49000;50.698;13.322;2023-07-16T12:50:12;3.60;;;1.92;;
62903;SDS011;49000;50.698;13.322;2023-07-16T12:52:38;3.20;;;1.98;;
62903;SDS011;49000;50.698;13.322;2023-07-16T12:55:03;3.25;;;2.00;;
62903;SDS011;49000;50.698;13.322;2023-07-16T12:57:29;2.83;;;2.05;;
62903;SDS011;49000;50.698;13.322;2023-07-16T12:59:54;2.10;;;1.90;;
62903;SDS011;49000;50.698;13.322;2023-07-16T13:02:20;5.72;;;2.00;;
62903;SDS011;49000;50.698;13.322;2023-07-16T13:04:45;2.42;;;1.80;;
62903;SDS011;49000;50.698;13.322;2023-07-16T13:07:11;2.65;;;1.80;;
62903;SDS011;49000;50.698;13.322;2023-07-16T13:09:37;3.30;;;2.05;;
62903;SDS011;49000;50.698;13.322;2023-07-16T13:12:03;3.22;;;2.15;;
62903;SDS011;49000;50.698;13.322;2023-07-16T13:14:29;2.45;;;2.00;;
62903;SDS011;49000;50.698;13.322;2023-07-16T13:16:54;2.50;;;2.30;;
62903;SDS011;49000;50.698;13.322;2023-07-16T13:19:20;4.70;;;2.03;;
62903;SDS011;49000;50.698;13.322;2023-07-16T13:21:45;5.10;;;2.28;;
62903;SDS011;49000;50.698;13.322;2023-07-16T13:24:11;2.53;;;1.90;;
62903;SDS011;49000;50.698;13.322;2023-07-16T13:26:36;3.78;;;1.88;;
62903;SDS011;49000;50.698;13.322;2023-07-16T13:29:02;4.45;;;2.10;;
62903;SDS011;49000;50.698;13.322;2023-07-16T13:31:27;3.65;;;2.13;;
62903;SDS011;49000;50.698;13.322;2023-07-16T13:33:53;4.13;;;2.10;;
62903;SDS011;49000;50.698;13.322;2023-07-16T13:36:19;2.30;;;1.80;;
62903;SDS011;49000;50.698;13.322;2023-07-16T13:38:44;4.22;;;2.05;;
62903;SDS011;49000;50.698;13.322;2023-07-16T13:41:10;2.90;;;1.85;;
62903;SDS011;49000;50.698;13.322;2023-07-16T13:43:35;3.45;;;2.03;;
62903;SDS011;49000;50.698;13.322;2023-07-16T13:46:01;3.10;;;2.20;;
62903;SDS011;49000;50.698;13.322;2023-07-16T13:48:26;2.35;;;2.03;;
62903;SDS011;49000;50.698;13.322;2023-07-16T13:50:52;3.53;;;1.92;;
62903;SDS011;49000;50.698;13.322;2023-07-16T13:53:17;4.07;;;1.88;;
62903;SDS011;49000;50.698;13.322;2023-07-16T13:55:43;1.98;;;1.63;;
62903;SDS011;49000;50.698;13.322;2023-07-16T13:58:09;3.47;;;1.95;;
62903;SDS011;49000;50.698;13.322;2023-07-16T14:00:35;2.75;;;2.05;;
62903;SDS011;49000;50.698;13.322;2023-07-16T14:03:01;3.13;;;2.00;;
62903;SDS011;49000;50.698;13.322;2023-07-16T14:05:27;3.65;;;2.10;;
62903;SDS011;49000;50.698;13.322;2023-07-16T14:07:52;4.82;;;2.28;;
62903;SDS011;49000;50.698;13.322;2023-07-16T14:10:18;3.05;;;2.05;;
62903;SDS011;49000;50.698;13.322;2023-07-16T14:12:44;4.80;;;2.00;;
62903;SDS011;49000;50.698;13.322;2023-07-16T14:15:09;3.40;;;2.05;;
62903;SDS011;49000;50.698;13.322;2023-07-16T14:17:35;2.85;;;1.92;;
62903;SDS011;49000;50.698;13.322;2023-07-16T14:20:00;3.97;;;2.17;;
62903;SDS011;49000;50.698;13.322;2023-07-16T14:22:26;3.08;;;2.00;;
62903;SDS011;49000;50.698;13.322;2023-07-16T14:24:53;2.90;;;2.30;;
62903;SDS011;49000;50.698;13.322;2023-07-16T14:27:18;2.88;;;1.98;;
62903;SDS011;49000;50.698;13.322;2023-07-16T14:29:45;3.78;;;2.28;;
62903;SDS011;49000;50.698;13.322;2023-07-16T14:32:10;3.03;;;2.22;;
62903;SDS011;49000;50.698;13.322;2023-07-16T14:34:36;2.45;;;2.05;;
62903;SDS011;49000;50.698;13.322;2023-07-16T14:37:02;2.90;;;2.10;;